createdAt,value
2022-11-20T00:00:17.954Z,32.90
2022-11-20T00:02:44.298Z,34.40
2022-11-20T00:05:10.777Z,34.47
2022-11-20T00:07:37.132Z,32.50
2022-11-20T00:10:03.771Z,33.45
2022-11-20T00:12:30.135Z,35.77
2022-11-20T00:14:56.524Z,32.00
2022-11-20T00:17:22.914Z,36.72
2022-11-20T00:19:49.313Z,34.28
2022-11-20T00:22:15.674Z,35.65
2022-11-20T00:24:43.306Z,31.38
2022-11-20T00:27:09.863Z,29.75
2022-11-20T00:29:36.230Z,30.45
2022-11-20T00:32:02.652Z,34.00
2022-11-20T00:34:29.036Z,29.80
2022-11-20T00:36:55.415Z,31.20
2022-11-20T00:39:22.094Z,33.83
2022-11-20T00:41:48.746Z,31.52
2022-11-20T00:44:15.137Z,34.13
2022-11-20T00:46:41.596Z,31.00
2022-11-20T00:49:07.981Z,29.95
2022-11-20T00:51:34.375Z,27.90
2022-11-20T00:54:01.065Z,30.02
2022-11-20T00:56:27.682Z,32.28
2022-11-20T00:58:54.116Z,39.17
2022-11-20T01:01:25.816Z,33.03
2022-11-20T01:03:54.808Z,34.70
2022-11-20T01:06:33.099Z,31.55
2022-11-20T01:09:01.479Z,29.98
2022-11-20T01:11:33.593Z,33.08
2022-11-20T01:14:01.854Z,31.73
2022-11-20T01:16:31.725Z,32.33
2022-11-20T01:19:01.225Z,28.65
2022-11-20T01:21:30.727Z,30.98
2022-11-20T01:23:57.987Z,30.60
2022-11-20T01:26:26.800Z,30.92
2022-11-20T01:28:53.944Z,30.52
2022-11-20T01:31:26.182Z,31.85
2022-11-20T01:33:54.771Z,33.13
2022-11-20T01:36:23.131Z,33.35
2022-11-20T01:38:53.406Z,37.08
2022-11-20T01:41:38.420Z,37.25
2022-11-20T01:44:05.692Z,34.90
2022-11-20T01:46:39.232Z,35.65
2022-11-20T01:49:16.424Z,30.55
2022-11-20T01:51:48.929Z,32.22
2022-11-20T01:54:22.978Z,32.13
2022-11-20T01:56:54.852Z,31.00
2022-11-20T01:59:23.836Z,32.50
2022-11-20T02:01:50.531Z,30.30
2022-11-20T02:04:17.600Z,30.80
2022-11-20T02:06:50.616Z,35.05
2022-11-20T02:09:17.597Z,32.13
2022-11-20T02:11:44.022Z,28.75
2022-11-20T02:14:11.114Z,34.08
2022-11-20T02:16:46.540Z,33.38
2022-11-20T02:19:30.625Z,36.15
2022-11-20T02:22:09.659Z,35.22
2022-11-20T02:24:36.085Z,36.33
2022-11-20T02:27:08.877Z,36.30
2022-11-20T02:29:40.744Z,35.63
2022-11-20T02:32:07.369Z,33.40
2022-11-20T02:34:33.740Z,39.40
2022-11-20T02:37:00.709Z,40.33
2022-11-20T02:39:29.188Z,37.20
2022-11-20T02:41:56.933Z,35.10
2022-11-20T02:44:23.338Z,38.42
2022-11-20T02:46:49.782Z,35.40
2022-11-20T02:49:17.453Z,30.05
2022-11-20T02:51:43.871Z,36.47
2022-11-20T02:54:10.339Z,31.60
2022-11-20T02:56:40.355Z,31.73
2022-11-20T02:59:06.933Z,39.10
2022-11-20T03:01:33.433Z,30.42
2022-11-20T03:04:00.016Z,30.58
2022-11-20T03:06:26.453Z,33.58
2022-11-20T03:08:52.908Z,34.75
2022-11-20T03:11:19.401Z,33.92
2022-11-20T03:13:45.924Z,32.05
2022-11-20T03:16:20.767Z,33.47
2022-11-20T03:18:47.723Z,37.00
2022-11-20T03:21:15.717Z,31.95
2022-11-20T03:23:42.445Z,35.22
2022-11-20T03:26:30.485Z,36.30
2022-11-20T03:29:01.875Z,33.13
2022-11-20T03:31:34.087Z,30.38
2022-11-20T03:34:01.445Z,35.70
2022-11-20T03:36:28.911Z,32.35
2022-11-20T03:38:56.870Z,35.22
2022-11-20T03:41:26.134Z,35.97
2022-11-20T03:43:55.317Z,33.45
2022-11-20T03:46:22.746Z,37.38
2022-11-20T03:48:51.888Z,35.17
2022-11-20T03:51:23.349Z,33.63
2022-11-20T03:53:51.451Z,34.10
2022-11-20T03:56:19.768Z,33.38
2022-11-20T03:58:46.144Z,31.45
2022-11-20T04:01:18.704Z,32.58
2022-11-20T04:03:46.110Z,34.35
2022-11-20T04:06:21.274Z,35.00
2022-11-20T04:08:53.347Z,29.65
2022-11-20T04:11:25.389Z,31.15
2022-11-20T04:14:03.252Z,31.70
2022-11-20T04:16:31.460Z,34.15
2022-11-20T04:19:00.217Z,31.35
2022-11-20T04:21:27.595Z,34.10
2022-11-20T04:23:54.559Z,35.17
2022-11-20T04:26:23.000Z,29.38
2022-11-20T04:28:49.373Z,29.90
2022-11-20T04:31:18.300Z,35.92
2022-11-20T04:33:45.021Z,34.75
2022-11-20T04:36:16.102Z,36.33
2022-11-20T04:38:44.610Z,36.13
2022-11-20T04:41:16.511Z,33.55
2022-11-20T04:43:46.917Z,35.05
2022-11-20T04:46:13.301Z,33.28
2022-11-20T04:48:39.784Z,36.75
2022-11-20T04:51:06.962Z,34.03
2022-11-20T04:53:33.705Z,41.08
2022-11-20T04:56:05.743Z,32.70
2022-11-20T04:58:32.427Z,35.90
2022-11-20T05:01:07.074Z,33.17
2022-11-20T05:03:35.534Z,33.10
2022-11-20T05:06:06.999Z,34.30
2022-11-20T05:08:34.153Z,39.58
2022-11-20T05:11:20.962Z,35.90
2022-11-20T05:13:47.687Z,34.83
2022-11-20T05:16:16.943Z,37.85
2022-11-20T05:18:44.133Z,33.22
2022-11-20T05:21:12.180Z,39.15
2022-11-20T05:23:39.326Z,37.45
2022-11-20T05:26:07.845Z,36.45
2022-11-20T05:28:35.182Z,35.47
2022-11-20T05:31:09.726Z,45.05
2022-11-20T05:33:36.918Z,39.15
2022-11-20T05:36:06.703Z,37.88
2022-11-20T05:38:33.493Z,36.45
2022-11-20T05:41:11.259Z,44.17
2022-11-20T05:43:40.100Z,43.08
2022-11-20T05:46:08.021Z,38.47
2022-11-20T05:48:35.870Z,42.47
2022-11-20T05:51:04.528Z,46.83
2022-11-20T05:53:32.814Z,43.33
2022-11-20T05:56:05.125Z,41.47
2022-11-20T05:58:32.462Z,41.70
2022-11-20T06:01:28.267Z,40.30
2022-11-20T06:03:55.174Z,52.03
2022-11-20T06:06:22.500Z,41.53
2022-11-20T06:08:49.801Z,42.35
2022-11-20T06:11:16.991Z,42.90
2022-11-20T06:13:44.452Z,41.15
2022-11-20T06:16:12.069Z,40.13
2022-11-20T06:21:11.772Z,43.23
2022-11-20T06:23:38.486Z,46.28
2022-11-20T06:26:10.130Z,43.78
2022-11-20T06:28:36.900Z,46.42
2022-11-20T06:31:05.638Z,44.67
2022-11-20T06:33:32.369Z,42.05
2022-11-20T06:36:03.441Z,47.00
2022-11-20T06:38:32.352Z,45.85
2022-11-20T06:40:58.742Z,47.75
2022-11-20T06:43:25.436Z,42.60
2022-11-20T06:45:55.540Z,44.23
2022-11-20T06:48:22.446Z,56.13
2022-11-20T06:50:48.836Z,44.75
2022-11-20T06:53:15.270Z,43.60
2022-11-20T06:55:46.048Z,47.05
2022-11-20T06:58:13.555Z,44.63
2022-11-20T07:00:40.392Z,46.92
2022-11-20T07:03:09.669Z,46.10
2022-11-20T07:05:36.651Z,47.55
2022-11-20T07:08:04.079Z,44.92
2022-11-20T07:10:30.514Z,42.08
2022-11-20T07:12:56.953Z,48.47
2022-11-20T07:15:25.234Z,44.60
2022-11-20T07:17:51.686Z,47.08
2022-11-20T07:20:18.178Z,48.47
2022-11-20T07:22:44.716Z,47.45
2022-11-20T07:25:11.505Z,41.35
2022-11-20T07:27:38.000Z,45.53
2022-11-20T07:30:05.278Z,51.45
2022-11-20T07:32:32.003Z,41.95
2022-11-20T07:34:58.462Z,40.47
2022-11-20T07:37:24.855Z,41.47
2022-11-20T07:39:51.279Z,46.30
2022-11-20T07:42:17.659Z,38.20
2022-11-20T07:44:44.036Z,40.40
2022-11-20T07:47:10.444Z,39.78
2022-11-20T07:49:36.841Z,43.90
2022-11-20T07:52:05.011Z,40.75
2022-11-20T07:54:31.861Z,36.92
2022-11-20T07:56:58.286Z,40.53
2022-11-20T07:59:24.648Z,37.33
2022-11-20T08:01:51.060Z,40.45
2022-11-20T08:04:17.547Z,36.28
2022-11-20T08:06:43.995Z,33.67
2022-11-20T08:09:10.605Z,31.30
2022-11-20T08:11:55.646Z,29.67
2022-11-20T08:14:22.038Z,33.67
2022-11-20T08:16:50.150Z,32.50
2022-11-20T08:19:18.486Z,34.78
2022-11-20T08:21:45.501Z,29.30
2022-11-20T08:24:12.639Z,27.90
2022-11-20T08:26:40.526Z,29.63
2022-11-20T08:29:07.213Z,24.50
2022-11-20T08:31:34.355Z,27.40
2022-11-20T08:34:00.742Z,22.55
2022-11-20T08:36:27.141Z,28.02
2022-11-20T08:38:56.053Z,25.77
2022-11-20T08:41:29.156Z,24.20
2022-11-20T08:44:01.051Z,27.88
2022-11-20T08:46:31.895Z,21.23
2022-11-20T08:48:59.446Z,21.50
2022-11-20T08:53:52.382Z,22.40
2022-11-20T08:56:18.831Z,21.63
2022-11-20T08:59:15.991Z,23.80
2022-11-20T09:01:31.849Z,23.45
2022-11-20T09:03:58.659Z,22.90
2022-11-20T09:06:25.079Z,17.85
2022-11-20T09:08:55.457Z,20.38
2022-11-20T09:11:22.243Z,16.83
2022-11-20T09:13:48.637Z,17.77
2022-11-20T09:16:15.146Z,19.70
2022-11-20T09:18:41.554Z,16.33
2022-11-20T09:21:13.170Z,16.02
2022-11-20T09:23:40.407Z,18.05
2022-11-20T09:26:09.689Z,15.05
2022-11-20T09:28:36.049Z,17.52
2022-11-20T09:31:06.960Z,15.48
2022-11-20T09:33:33.378Z,15.75
2022-11-20T09:35:59.777Z,14.05
2022-11-20T09:38:26.906Z,13.70
2022-11-20T09:40:59.192Z,14.30
2022-11-20T09:43:37.063Z,13.57
2022-11-20T09:46:27.386Z,13.40
2022-11-20T09:48:59.673Z,16.05
2022-11-20T09:51:45.745Z,14.15
2022-11-20T09:54:20.800Z,10.65
2022-11-20T09:56:54.651Z,12.57
2022-11-20T09:59:36.613Z,15.32
2022-11-20T10:02:15.842Z,10.80
2022-11-20T10:04:48.756Z,10.45
2022-11-20T10:07:32.643Z,10.65
2022-11-20T10:10:00.426Z,11.95
2022-11-20T10:12:41.226Z,11.85
2022-11-20T10:15:25.600Z,11.57
2022-11-20T10:18:25.986Z,14.00
2022-11-20T10:21:14.360Z,14.00
2022-11-20T10:23:59.531Z,12.73
2022-11-20T10:26:39.628Z,15.90
2022-11-20T10:29:12.076Z,11.82
2022-11-20T10:31:41.808Z,11.55
2022-11-20T10:34:23.489Z,10.43
2022-11-20T10:36:59.325Z,11.02
2022-11-20T10:39:34.908Z,10.43
2022-11-20T10:42:01.911Z,10.43
2022-11-20T10:44:50.246Z,9.98
2022-11-20T10:47:20.196Z,9.85
2022-11-20T10:49:54.046Z,7.68
2022-11-20T10:52:38.160Z,12.32
2022-11-20T10:55:17.048Z,8.18
2022-11-20T10:57:56.170Z,8.60
2022-11-20T11:00:22.634Z,10.43
2022-11-20T11:02:51.267Z,7.65
2022-11-20T11:05:38.110Z,9.05
2022-11-20T11:08:10.909Z,7.65
2022-11-20T11:10:45.039Z,9.57
2022-11-20T11:13:27.250Z,10.68
2022-11-20T11:15:54.515Z,9.15
2022-11-20T11:18:27.357Z,8.32
2022-11-20T11:20:56.052Z,10.00
2022-11-20T11:23:38.509Z,10.75
2022-11-20T11:26:08.342Z,8.93
2022-11-20T11:28:35.410Z,10.65
2022-11-20T11:31:01.815Z,10.60
2022-11-20T11:33:30.215Z,10.27
2022-11-20T11:36:00.360Z,9.32
2022-11-20T11:38:35.213Z,8.27
2022-11-20T11:41:02.506Z,10.07
2022-11-20T11:43:52.927Z,7.93
2022-11-20T11:46:22.021Z,9.68
2022-11-20T11:49:10.189Z,8.05
2022-11-20T11:52:01.959Z,7.97
2022-11-20T11:54:47.587Z,6.38
2022-11-20T11:57:25.927Z,6.20
2022-11-20T12:00:07.590Z,6.40
2022-11-20T12:02:54.599Z,7.80
2022-11-20T12:05:41.233Z,6.88
2022-11-20T12:08:52.853Z,7.72
2022-11-20T12:11:38.655Z,7.88
2022-11-20T12:14:16.815Z,10.35
2022-11-20T12:16:43.432Z,9.32
2022-11-20T12:19:14.713Z,8.73
2022-11-20T12:21:59.815Z,8.15
2022-11-20T12:24:27.745Z,8.88
2022-11-20T12:27:17.842Z,9.18
2022-11-20T12:29:47.911Z,9.07
2022-11-20T12:32:36.742Z,9.25
2022-11-20T12:35:30.625Z,8.10
2022-11-20T12:38:30.698Z,9.40
2022-11-20T12:41:35.710Z,9.75
2022-11-20T12:44:41.061Z,13.68
2022-11-20T12:47:48.805Z,12.00
2022-11-20T12:50:42.929Z,10.90
2022-11-20T12:53:44.008Z,9.57
2022-11-20T12:56:27.425Z,12.35
2022-11-20T12:59:21.765Z,16.88
2022-11-20T13:01:59.667Z,13.07
2022-11-20T13:04:38.003Z,17.60
2022-11-20T13:07:08.830Z,16.40
2022-11-20T13:09:46.963Z,17.17
2022-11-20T13:12:46.835Z,14.82
2022-11-20T13:15:38.226Z,12.40
2022-11-20T13:18:09.154Z,7.85
2022-11-20T13:20:37.112Z,11.43
2022-11-20T13:23:03.583Z,11.40
2022-11-20T13:25:38.175Z,11.10
2022-11-20T13:28:26.292Z,9.38
2022-11-20T13:30:55.176Z,10.48
2022-11-20T13:33:36.076Z,8.57
2022-11-20T13:36:08.542Z,8.77
2022-11-20T13:38:45.067Z,8.57
2022-11-20T13:41:29.737Z,8.77
2022-11-20T13:44:10.103Z,7.85
2022-11-20T13:46:47.411Z,7.88
2022-11-20T13:49:30.394Z,7.43
2022-11-20T13:52:23.488Z,5.68
2022-11-20T13:55:08.523Z,6.85
2022-11-20T13:57:59.900Z,6.10
2022-11-20T14:00:27.186Z,7.00
2022-11-20T14:03:08.521Z,8.02
2022-11-20T14:05:41.425Z,9.02
2022-11-20T14:08:18.495Z,6.22
2022-11-20T14:10:44.869Z,7.95
2022-11-20T14:13:18.344Z,6.97
2022-11-20T14:15:45.396Z,6.65
2022-11-20T14:18:22.824Z,8.43
2022-11-20T14:20:49.657Z,7.50
2022-11-20T14:23:30.072Z,6.82
2022-11-20T14:25:57.985Z,7.82
2022-11-20T14:28:30.016Z,9.32
2022-11-20T14:30:58.613Z,12.15
2022-11-20T14:33:27.504Z,9.88
2022-11-20T14:35:57.119Z,12.70
2022-11-20T14:38:27.432Z,9.05
2022-11-20T14:40:53.941Z,9.13
2022-11-20T14:43:28.791Z,11.32
2022-11-20T14:46:07.973Z,12.30
2022-11-20T14:48:45.453Z,11.68
2022-11-20T14:53:39.015Z,9.90
2022-11-20T14:56:05.640Z,13.10
2022-11-20T14:58:34.611Z,12.48
2022-11-20T15:01:05.778Z,9.57
2022-11-20T15:03:39.206Z,14.13
2022-11-20T15:06:07.430Z,12.48
2022-11-20T15:08:34.296Z,10.60
2022-11-20T15:11:00.908Z,11.13
2022-11-20T15:13:39.246Z,12.82
2022-11-20T15:16:18.257Z,12.63
2022-11-20T15:18:44.883Z,13.43
2022-11-20T15:21:13.784Z,15.65
2022-11-20T15:23:40.393Z,16.00
2022-11-20T15:26:08.318Z,13.50
2022-11-20T15:28:38.119Z,14.05
2022-11-20T15:31:05.223Z,13.82
2022-11-20T15:33:32.669Z,14.10
2022-11-20T15:35:59.376Z,15.05
2022-11-20T15:38:25.827Z,14.20
2022-11-20T15:40:52.302Z,16.50
2022-11-20T15:43:18.817Z,16.65
2022-11-20T15:45:51.359Z,17.20
2022-11-20T15:48:20.015Z,16.85
2022-11-20T15:51:01.406Z,16.65
2022-11-20T15:53:28.174Z,15.10
2022-11-20T15:55:54.728Z,19.80
2022-11-20T15:58:21.223Z,17.15
2022-11-20T16:00:47.593Z,16.83
2022-11-20T16:03:15.498Z,17.13
2022-11-20T16:05:41.912Z,23.30
2022-11-20T16:08:11.663Z,20.20
2022-11-20T16:10:39.064Z,17.80
2022-11-20T16:13:24.983Z,18.25
2022-11-20T16:15:56.446Z,17.48
2022-11-20T16:18:23.172Z,27.15
2022-11-20T16:20:54.084Z,30.70
2022-11-20T16:23:21.779Z,32.60
2022-11-20T16:28:18.849Z,18.45
2022-11-20T16:30:45.967Z,18.38
2022-11-20T16:33:14.854Z,12.90
2022-11-20T16:35:41.488Z,15.82
2022-11-20T16:38:08.232Z,16.47
2022-11-20T16:40:35.306Z,19.87
2022-11-20T16:43:13.882Z,16.38
2022-11-20T16:45:44.585Z,23.90
2022-11-20T16:48:15.680Z,27.20
2022-11-20T16:50:53.177Z,29.10
2022-11-20T16:55:46.653Z,24.63
2022-11-20T16:58:13.407Z,28.70
2022-11-20T17:00:40.749Z,29.60
2022-11-20T17:03:07.749Z,26.05
2022-11-20T17:05:34.976Z,24.88
2022-11-20T17:08:01.879Z,26.92
2022-11-20T17:10:28.291Z,26.70
2022-11-20T17:12:54.695Z,22.98
2022-11-20T17:15:21.129Z,25.10
2022-11-20T17:17:47.909Z,20.77
2022-11-20T17:20:14.343Z,21.50
2022-11-20T17:22:40.702Z,21.58
2022-11-20T17:25:07.401Z,18.52
2022-11-20T17:27:33.810Z,21.07
2022-11-20T17:30:00.266Z,19.95
2022-11-20T17:32:26.839Z,23.08
2022-11-20T17:34:53.261Z,22.38
2022-11-20T17:37:19.691Z,24.77
2022-11-20T17:39:46.812Z,25.65
2022-11-20T17:42:29.555Z,25.70
2022-11-20T17:44:58.631Z,29.42
2022-11-20T17:47:25.892Z,29.63
2022-11-20T17:49:53.518Z,32.22
2022-11-20T17:52:20.020Z,37.08
2022-11-20T17:54:46.384Z,39.28
2022-11-20T17:57:31.542Z,31.70
2022-11-20T17:59:58.000Z,34.72
2022-11-20T18:02:24.996Z,36.30
2022-11-20T18:04:51.375Z,37.28
2022-11-20T18:07:17.853Z,35.38
2022-11-20T18:09:44.293Z,37.80
2022-11-20T18:12:10.753Z,35.47
2022-11-20T18:14:37.175Z,31.55
2022-11-20T18:17:06.791Z,30.00
2022-11-20T18:19:40.429Z,30.55
2022-11-20T18:22:12.888Z,34.67
2022-11-20T18:24:39.511Z,33.25
2022-11-20T18:27:07.685Z,34.72
2022-11-20T18:29:34.242Z,48.53
2022-11-20T18:32:01.359Z,75.50
2022-11-20T18:34:28.165Z,82.97
2022-11-20T18:36:54.526Z,76.95
2022-11-20T18:39:21.028Z,54.10
2022-11-20T18:42:06.186Z,62.33
2022-11-20T18:44:51.542Z,44.72
2022-11-20T18:47:23.708Z,51.63
2022-11-20T18:49:52.721Z,34.13
2022-11-20T18:52:24.028Z,30.65
2022-11-20T18:54:51.197Z,28.65
2022-11-20T18:57:19.002Z,36.03
2022-11-20T18:59:45.970Z,39.88
2022-11-20T19:02:17.705Z,36.25
2022-11-20T19:04:44.184Z,38.90
2022-11-20T19:07:14.320Z,46.33
2022-11-20T19:09:42.855Z,44.58
2022-11-20T19:12:10.865Z,37.67
2022-11-20T19:14:37.419Z,34.78
2022-11-20T19:17:04.636Z,32.83
2022-11-20T19:19:31.088Z,35.40
2022-11-20T19:21:57.515Z,31.27
2022-11-20T19:24:24.311Z,30.42
2022-11-20T19:26:50.824Z,28.85
2022-11-20T19:29:17.607Z,28.77
2022-11-20T19:31:45.533Z,28.38
2022-11-20T19:34:12.058Z,23.13
2022-11-20T19:36:44.570Z,27.85
2022-11-20T19:39:11.839Z,42.50
2022-11-20T19:41:40.241Z,48.58
2022-11-20T19:44:17.092Z,38.83
2022-11-20T19:46:44.431Z,45.47
2022-11-20T19:49:12.937Z,36.00
2022-11-20T19:51:44.621Z,52.50
2022-11-20T19:54:11.022Z,40.38
2022-11-20T19:56:37.420Z,32.17
2022-11-20T19:59:03.814Z,36.22
2022-11-20T20:01:31.088Z,47.63
2022-11-20T20:04:05.093Z,92.40
2022-11-20T20:06:33.941Z,45.95
2022-11-20T20:09:05.446Z,50.72
2022-11-20T20:11:33.382Z,45.10
2022-11-20T20:14:01.548Z,40.45
2022-11-20T20:16:28.816Z,37.85
2022-11-20T20:18:56.703Z,33.55
2022-11-20T20:21:23.412Z,29.58
2022-11-20T20:23:54.927Z,31.40
2022-11-20T20:26:23.376Z,32.15
2022-11-20T20:28:50.556Z,33.50
2022-11-20T20:31:19.624Z,36.85
2022-11-20T20:33:46.373Z,34.47
2022-11-20T20:36:14.771Z,37.10
2022-11-20T20:38:42.371Z,34.53
2022-11-20T20:43:56.443Z,34.50
2022-11-20T20:46:23.422Z,32.80
2022-11-20T20:48:54.152Z,33.63
2022-11-20T20:51:22.232Z,41.88
2022-11-20T20:53:48.896Z,42.15
2022-11-20T20:56:15.662Z,43.80
2022-11-20T20:58:42.084Z,38.90
2022-11-20T21:01:11.938Z,48.83
2022-11-20T21:03:38.740Z,40.78
2022-11-20T21:06:06.675Z,38.43
2022-11-20T21:08:33.104Z,47.08
2022-11-20T21:11:08.254Z,44.70
2022-11-20T21:13:35.494Z,39.03
2022-11-20T21:16:02.675Z,32.08
2022-11-20T21:18:29.287Z,34.85
2022-11-20T21:21:14.251Z,30.75
2022-11-20T21:23:42.050Z,28.13
2022-11-20T21:26:09.248Z,30.63
2022-11-20T21:28:37.433Z,26.50
2022-11-20T21:31:04.955Z,25.23
2022-11-20T21:33:58.087Z,25.63
2022-11-20T21:36:26.619Z,23.17
2022-11-20T21:38:56.921Z,25.88
2022-11-20T21:41:24.875Z,30.05
2022-11-20T21:44:23.485Z,33.28
2022-11-20T21:46:40.760Z,32.45
2022-11-20T21:49:07.509Z,27.45
2022-11-20T21:51:34.061Z,56.08
2022-11-20T21:54:00.579Z,64.95
2022-11-20T21:56:27.637Z,56.00
2022-11-20T21:58:54.804Z,35.72
2022-11-20T22:01:27.612Z,42.95
2022-11-20T22:03:57.142Z,43.67
2022-11-20T22:06:25.938Z,33.17
2022-11-20T22:08:52.724Z,41.85
2022-11-20T22:11:21.419Z,35.20
2022-11-20T22:14:07.022Z,29.40
2022-11-20T22:16:36.465Z,29.05
2022-11-20T22:19:03.517Z,26.55
2022-11-20T22:21:31.539Z,32.50
2022-11-20T22:23:58.585Z,25.98
2022-11-20T22:26:30.761Z,26.90
2022-11-20T22:28:59.164Z,27.38
2022-11-20T22:31:28.088Z,27.92
2022-11-20T22:33:54.932Z,25.30
2022-11-20T22:36:23.790Z,29.25
2022-11-20T22:38:50.663Z,29.02
2022-11-20T22:41:24.953Z,30.98
2022-11-20T22:43:58.261Z,27.40
2022-11-20T22:46:26.219Z,31.98
2022-11-20T22:48:54.428Z,43.42
2022-11-20T22:51:23.755Z,27.02
2022-11-20T22:53:50.956Z,26.80
2022-11-20T22:56:18.156Z,28.77
2022-11-20T22:58:46.521Z,20.75
2022-11-20T23:01:14.360Z,26.30
2022-11-20T23:03:42.724Z,23.90
2022-11-20T23:06:10.211Z,26.75
2022-11-20T23:08:37.228Z,30.67
2022-11-20T23:11:06.348Z,27.60
2022-11-20T23:13:33.123Z,30.55
2022-11-20T23:16:08.287Z,27.30
2022-11-20T23:18:35.140Z,31.67
2022-11-20T23:21:10.013Z,36.47
2022-11-20T23:23:36.424Z,33.63
2022-11-20T23:26:11.209Z,34.13
2022-11-20T23:28:38.571Z,34.63
2022-11-20T23:31:06.132Z,39.70
2022-11-20T23:33:35.976Z,42.00
2022-11-20T23:36:02.502Z,44.20
2022-11-20T23:38:28.889Z,40.13
2022-11-20T23:40:55.288Z,40.75
2022-11-20T23:43:22.680Z,47.30
2022-11-20T23:45:51.563Z,49.15
2022-11-20T23:48:19.357Z,43.58
2022-11-20T23:50:46.023Z,44.78
2022-11-20T23:53:14.362Z,47.03
2022-11-20T23:55:46.135Z,49.83
2022-11-20T23:58:12.999Z,45.03
